الخرج, السعودية

06:50 PM AST on سبتهبر 30, 2014 (GMT +0300)
Prince Sultan Air Base | Change Station
CLOSE
Current Station
Airport
Location: Al Kharj Air Base,
Elevation: 500 m
Nearby Weather Stations

Elev 500 m 24.07 °N, 47.58 °E | Updated 50 minutes ago

Clear
صافية
34 °C
Feels Like 34 °C
N
9
ريح متغير ريح from ENE

هذا اليوم
High -- | Low -- °C
--% Chance of Precip.
Yesterday
High -- | Low -- °C
Precip. -- mm
5:42 AM 5:39 PM
الهلال الأول, 37% visible
الضغط 1012 hPa
وضوح الرؤية -9999.0 كيلومترات
سحابات
نقطة الندى 5 °C
الرطوبة 16%
Rainfall 0.0 mm
عمق الثلج Not available.
الأشعة فوق البنفسجية Not available.
Pollen Not available.
جودة الهواء Not available.
Flu Activity Not available.
METAR OEKJ 301500Z 07005KT CAVOK 34/05 Q1012

More Conditions Fewer Conditions

الضغط 1012 hPa
وضوح الرؤية -9999.0 كيلومترات
سحابات
نقطة الندى 5 °C
الرطوبة 16%
Rainfall 0.0 mm
عمق الثلج Not available.
الأشعة فوق البنفسجية Not available.
Pollen Not available.
جودة الهواء Not available.
Flu Activity Not available.
METAR OEKJ 301500Z 07005KT CAVOK 34/05 Q1012

More Conditions Fewer Conditions

10-Day Weather Forecast

Almanac

علم الفلك

Sep. 30, 2014 Rise Set
Actual Time 5:42 AM AST 5:39 PM AST
Civil Twilight 5:19 AM AST 6:01 PM AST
Nautical Twilight 4:53 AM AST 6:28 PM AST
Astronomical Twilight 4:26 AM AST 6:54 PM AST
قمر 11:00 AM AST 10:15 PM AST
Length Of Visible Light 12h 42m
طول الیوم
11h 57m
Tomorrow will be 1m 24s shorter.
الهلال الأول, 37% of the Moon is Illuminated
هذا اليوم
الهلال الأول
Oct 1
الربع الاول
Oct 8
بدر
Oct 15
الربع الآخر
Oct 23
New

Today's Extremes

Country Highs Country Lows

Community

WunderPhotos

Upload Photos

1,757,671 photos uploaded!

Nearby

جودة الهواء

Not available.

عمق الثلج

Not available.

Earthquake Activity

City Distance Mag. Time & Date
No recent earthquake activity has been reported nearby.
Minimum magnitude displayed is 2.5.

Coastal Water Temperatures

مكان درجات الحرارة
No Stations Reporting

Nearby Weather Stations